GCLA/SPC METAR and TAF weather

Enter ICAO airport designator
Station Type Date Time Source
GCLA METAR 2022/09/28 19:30 UTC NOAA

GCLA 281930Z 02008KT 350V060 9999 OVC023 23/19 Q1021


Station Type Date Time Source
GCLA Decoded METAR 2022/09/28 19:30 UTC NOAA

La Palma / Aeropuerto, Spain (GCLA) 28-37N 017-45W 31M
Sep 28, 2022 - 03:30 PM EDT / 2022.09.28 1930 UTC
Wind: from the NNE (020 degrees) at 9 MPH (8 KT) (direction variable):0
Visibility: greater than 7 mile(s):0
Sky conditions: overcast
Temperature: 73 F (23 C)
Dew Point: 66 F (19 C)
Relative Humidity: 78%
Pressure (altimeter): 30.15 in. Hg (1021 hPa)
ob: GCLA 281930Z 02008KT 350V060 9999 OVC023 23/19 Q1021
cycle: 19

Station Type Date Time Source
GCLA TAF 2022/09/28 15:27 UTC NOAA

TAF GCLA 281400Z 2815/2915 03010KT 9999 BKN025 TX24/2914Z TN21/2906Z
BECMG 2818/2821 31009KT

Example: see airport list